createdAt,value
2023-03-27T10:34:03.708Z,41.60
2023-03-27T10:36:41.008Z,42.70
2023-03-27T10:39:16.686Z,42.90
2023-03-27T10:41:50.661Z,41.90
2023-03-27T10:44:26.217Z,39.40
2023-03-27T10:46:57.047Z,40.20
2023-03-27T10:49:34.937Z,39.10
2023-03-27T10:52:18.216Z,37.60
2023-03-27T10:54:51.416Z,36.00
2023-03-27T10:57:25.088Z,34.60
2023-03-27T11:00:00.911Z,34.90
2023-03-27T11:02:39.355Z,33.70
2023-03-27T11:05:15.075Z,33.50
2023-03-27T11:07:53.326Z,33.30
2023-03-27T11:10:27.044Z,34.00
2023-03-27T11:12:59.504Z,34.60
2023-03-27T11:15:33.193Z,33.30
2023-03-27T11:18:09.575Z,33.60
2023-03-27T11:20:44.620Z,33.40
2023-03-27T11:23:25.066Z,34.10
2023-03-27T11:26:00.129Z,36.40
2023-03-27T11:28:43.096Z,37.90
2023-03-27T11:31:22.164Z,41.60
2023-03-27T11:33:55.490Z,41.70
2023-03-27T11:36:37.835Z,41.10
2023-03-27T11:39:17.039Z,42.70
2023-03-27T11:41:53.477Z,45.10
2023-03-27T11:44:24.194Z,44.80
2023-03-27T11:47:10.507Z,45.10
2023-03-27T11:50:04.240Z,44.80
2023-03-27T11:52:47.030Z,45.20
2023-03-27T11:55:31.347Z,46.30
2023-03-27T11:58:17.700Z,47.40
2023-03-27T12:00:52.774Z,49.70
2023-03-27T12:04:05.463Z,46.60
2023-03-27T12:06:43.529Z,48.40
2023-03-27T12:09:31.499Z,49.20
2023-03-27T12:15:02.348Z,50.30
2023-03-27T12:17:47.777Z,50.60
2023-03-27T12:20:54.136Z,47.60
2023-03-27T12:24:18.116Z,47.20
2023-03-27T12:27:20.717Z,46.10
2023-03-27T12:30:03.531Z,46.80
2023-03-27T12:33:01.868Z,46.20
2023-03-27T12:35:35.255Z,47.00
2023-03-27T12:38:08.892Z,47.60
2023-03-27T12:40:43.695Z,48.00
2023-03-27T12:43:28.294Z,48.80
2023-03-27T12:48:58.814Z,45.80
2023-03-27T12:51:48.475Z,46.80
2023-03-27T12:54:27.758Z,47.30
2023-03-27T12:57:08.415Z,47.30
2023-03-27T12:59:41.855Z,48.70
2023-03-27T13:02:42.706Z,48.00
2023-03-27T13:05:45.889Z,49.80
2023-03-27T13:08:37.932Z,51.50
2023-03-27T13:14:25.082Z,51.70
2023-03-27T13:17:02.178Z,51.40
2023-03-27T13:19:43.308Z,49.60
2023-03-27T13:22:23.784Z,49.20
2023-03-27T13:25:26.560Z,51.80
2023-03-27T13:28:20.929Z,51.90
2023-03-27T13:30:52.449Z,54.00
2023-03-27T13:33:29.623Z,51.30
2023-03-27T13:36:09.359Z,52.60
2023-03-27T13:39:21.279Z,51.90
2023-03-27T13:42:11.828Z,49.90
2023-03-27T13:44:50.678Z,49.50
2023-03-27T13:47:54.321Z,52.00
2023-03-27T13:50:53.428Z,52.10
2023-03-27T13:53:42.564Z,53.20
2023-03-27T13:56:50.048Z,53.40
2023-03-27T13:59:58.820Z,56.10
2023-03-27T14:02:58.612Z,55.40
2023-03-27T14:06:05.114Z,59.30
2023-03-27T14:08:44.082Z,67.30
2023-03-27T14:11:30.077Z,69.60
2023-03-27T14:14:26.659Z,63.00
2023-03-27T14:17:28.657Z,61.00
2023-03-27T14:20:28.726Z,58.80
2023-03-27T14:23:04.766Z,59.10
2023-03-27T14:28:10.531Z,59.40
2023-03-27T14:30:48.441Z,58.10
2023-03-27T14:33:22.215Z,58.40
2023-03-27T14:35:58.488Z,56.40
2023-03-27T14:38:31.693Z,54.20
2023-03-27T14:41:03.431Z,54.20
2023-03-27T14:43:34.202Z,54.30
2023-03-27T14:46:07.306Z,53.80
2023-03-27T14:51:16.850Z,52.40
2023-03-27T14:53:51.243Z,53.70
2023-03-27T14:56:29.593Z,51.60
2023-03-27T14:59:03.437Z,54.90
2023-03-27T15:01:35.370Z,55.60
2023-03-27T15:04:11.351Z,53.30
2023-03-27T15:06:41.935Z,56.80
2023-03-27T15:09:19.444Z,57.50
2023-03-27T15:11:52.116Z,56.20
2023-03-27T15:14:29.069Z,56.70
2023-03-27T15:17:04.279Z,59.80
2023-03-27T15:19:43.400Z,60.60
2023-03-27T15:22:24.595Z,59.00
2023-03-27T15:24:59.171Z,62.00
2023-03-27T15:27:32.867Z,60.50
2023-03-27T15:30:07.602Z,58.80
2023-03-27T15:32:50.341Z,61.80
2023-03-27T15:35:36.634Z,60.70
2023-03-27T15:38:09.770Z,58.20
2023-03-27T15:40:43.251Z,58.10
2023-03-27T15:43:27.074Z,60.80
2023-03-27T15:46:15.138Z,63.20
2023-03-27T15:48:46.151Z,61.20
2023-03-27T15:51:32.908Z,60.80
2023-03-27T15:54:29.849Z,56.60
2023-03-27T15:57:09.685Z,56.00
2023-03-27T15:59:52.254Z,58.90
2023-03-27T16:02:28.869Z,57.00
2023-03-27T16:05:00.936Z,57.00
2023-03-27T16:07:47.417Z,59.70
2023-03-27T16:10:32.132Z,59.10
2023-03-27T16:13:09.323Z,63.40
2023-03-27T16:15:41.475Z,65.00
2023-03-27T16:18:22.188Z,60.00
2023-03-27T16:20:52.472Z,63.50
2023-03-27T16:25:56.761Z,60.70
2023-03-27T16:28:29.920Z,63.30
2023-03-27T16:31:00.884Z,64.50
2023-03-27T16:33:31.276Z,63.30
2023-03-27T16:36:01.725Z,64.60
2023-03-27T16:38:34.657Z,62.40
2023-03-27T16:41:07.906Z,59.80
2023-03-27T16:46:09.345Z,57.60
2023-03-27T16:48:39.613Z,59.50
2023-03-27T16:51:09.921Z,59.50
2023-03-27T16:53:40.102Z,59.50
2023-03-27T16:56:13.463Z,60.80
2023-03-27T16:58:46.956Z,61.20
2023-03-27T17:01:17.322Z,59.00
2023-03-27T17:08:52.763Z,65.00
2023-03-27T17:11:25.782Z,65.90
2023-03-27T17:13:56.103Z,63.00
2023-03-27T17:16:26.351Z,64.90
2023-03-27T17:21:29.247Z,64.30
2023-03-27T17:26:36.866Z,66.10
2023-03-27T17:29:08.765Z,67.10
2023-03-27T17:36:49.595Z,64.80
2023-03-27T17:41:57.910Z,63.80
2023-03-27T17:46:58.484Z,66.60
2023-03-27T17:49:29.953Z,66.60
2023-03-27T17:57:03.826Z,64.80
2023-03-27T17:59:33.968Z,68.90
2023-03-27T18:04:34.928Z,68.10
2023-03-27T18:12:09.160Z,67.90
2023-03-27T18:14:39.495Z,70.50
2023-03-27T18:17:09.666Z,69.30
2023-03-27T18:19:40.251Z,68.80
2023-03-27T18:22:10.393Z,68.30
2023-03-27T18:24:40.916Z,68.90
2023-03-27T18:27:13.702Z,68.90
2023-03-27T18:34:44.874Z,69.60
2023-03-27T18:37:15.802Z,70.00
2023-03-27T18:39:46.939Z,70.80
2023-03-27T18:42:19.691Z,71.00
2023-03-27T18:44:49.882Z,71.40
2023-03-27T18:47:20.027Z,71.90
2023-03-27T18:49:50.339Z,72.70
2023-03-27T18:52:20.520Z,73.20
2023-03-27T18:54:50.822Z,71.10
2023-03-27T18:59:55.301Z,72.90
2023-03-27T19:02:25.203Z,69.50
2023-03-27T19:07:26.515Z,73.40
2023-03-27T19:09:57.463Z,74.60
2023-03-27T19:12:30.269Z,74.60
2023-03-27T19:15:09.762Z,73.70
2023-03-27T19:20:20.022Z,73.70
2023-03-27T19:25:21.632Z,74.10
2023-03-27T19:27:54.561Z,74.50
2023-03-27T19:30:25.203Z,73.90
2023-03-27T19:37:57.314Z,73.40
2023-03-27T19:40:27.868Z,72.80
2023-03-27T19:43:00.694Z,69.40
2023-03-27T19:48:01.364Z,74.20
2023-03-27T19:50:31.702Z,74.50
2023-03-27T19:53:08.636Z,74.10
2023-03-27T19:58:12.453Z,75.10
2023-03-27T20:00:44.647Z,74.40
2023-03-27T20:03:16.939Z,74.70
2023-03-27T20:05:50.537Z,70.90
2023-03-27T20:10:52.358Z,74.80
2023-03-27T20:13:25.168Z,74.80
2023-03-27T20:15:56.276Z,75.90
2023-03-27T20:21:05.386Z,72.60
2023-03-27T20:23:37.757Z,74.50
2023-03-27T20:28:41.061Z,75.80
2023-03-27T20:31:11.306Z,75.30
2023-03-27T20:36:12.213Z,76.90
2023-03-27T20:38:42.724Z,76.60
2023-03-27T20:43:51.122Z,72.90
2023-03-27T20:46:21.564Z,73.00
2023-03-27T20:53:58.950Z,78.60
2023-03-27T20:56:29.212Z,78.00
2023-03-27T21:01:34.501Z,77.30
2023-03-27T21:06:37.256Z,79.00
2023-03-27T21:09:08.322Z,79.80
2023-03-27T21:11:39.097Z,80.60
2023-03-27T21:14:11.873Z,76.50
2023-03-27T21:19:13.263Z,81.80
2023-03-27T21:21:43.517Z,82.10
2023-03-27T21:24:13.960Z,82.60
2023-03-27T21:26:44.190Z,83.70
2023-03-27T21:29:17.095Z,83.30
2023-03-27T21:31:47.456Z,81.80
2023-03-27T21:34:17.665Z,83.30
2023-03-27T21:36:48.226Z,83.40
2023-03-27T21:44:21.854Z,81.00
2023-03-27T21:46:52.068Z,85.70
2023-03-27T21:49:22.287Z,87.30
2023-03-27T21:51:52.470Z,86.90
2023-03-27T21:56:53.047Z,81.80
2023-03-27T22:04:28.051Z,87.80
2023-03-27T22:06:58.231Z,87.60
2023-03-27T22:09:28.329Z,88.10
2023-03-27T22:11:59.349Z,88.70
2023-03-27T22:14:32.230Z,87.90
2023-03-27T22:17:02.493Z,88.70
2023-03-27T22:22:03.069Z,88.60
2023-03-27T22:29:36.829Z,86.60
2023-03-27T22:32:07.363Z,90.90
2023-03-27T22:34:37.548Z,90.30
2023-03-27T22:39:38.012Z,90.70
2023-03-27T22:42:08.701Z,91.50
2023-03-27T22:44:41.748Z,91.20
2023-03-27T22:47:12.208Z,91.90
2023-03-27T22:49:42.318Z,92.10
2023-03-27T22:52:12.517Z,91.20
2023-03-27T22:54:42.739Z,92.40
2023-03-27T22:57:13.351Z,92.50
2023-03-27T23:04:47.049Z,92.50
2023-03-27T23:07:17.226Z,93.20
2023-03-27T23:09:47.361Z,93.50
2023-03-27T23:12:17.539Z,93.50
2023-03-27T23:14:50.809Z,91.20
2023-03-27T23:24:52.315Z,94.20
2023-03-27T23:29:55.555Z,94.80
2023-03-27T23:39:56.816Z,94.50
2023-03-27T23:42:27.043Z,95.00
2023-03-27T23:44:59.769Z,95.00
2023-03-27T23:52:30.975Z,95.80
2023-03-27T23:55:01.299Z,95.40
